sensor_id;sensor_type;location;lat;lon;timestamp;temperature;humidity
23560;DHT22;11958;50.836;4.438;2022-11-15T00:11:03;11.90;95.10
23560;DHT22;11958;50.836;4.438;2022-11-15T00:14:02;12.30;94.60
23560;DHT22;11958;50.836;4.438;2022-11-15T00:20:04;12.20;94.20
23560;DHT22;11958;50.836;4.438;2022-11-15T00:36:33;12.30;94.80
23560;DHT22;11958;50.836;4.438;2022-11-15T00:42:37;12.30;94.10
23560;DHT22;11958;50.836;4.438;2022-11-15T00:48:56;12.20;94.90
23560;DHT22;11958;50.836;4.438;2022-11-15T00:51:57;12.20;94.90
23560;DHT22;11958;50.836;4.438;2022-11-15T01:04:36;12.20;95.40
23560;DHT22;11958;50.836;4.438;2022-11-15T01:10:49;12.60;94.20
23560;DHT22;11958;50.836;4.438;2022-11-15T01:13:42;12.40;94.60
23560;DHT22;11958;50.836;4.438;2022-11-15T01:19:40;12.30;95.20
23560;DHT22;11958;50.836;4.438;2022-11-15T01:22:05;12.30;95.50
23560;DHT22;11958;50.836;4.438;2022-11-15T01:24:31;12.50;95.10
23560;DHT22;11958;50.836;4.438;2022-11-15T01:27:07;12.40;95.30
23560;DHT22;11958;50.836;4.438;2022-11-15T01:29:33;12.40;95.30
23560;DHT22;11958;50.836;4.438;2022-11-15T01:31:58;12.30;95.50
23560;DHT22;11958;50.836;4.438;2022-11-15T01:34:24;12.30;95.70
23560;DHT22;11958;50.836;4.438;2022-11-15T01:36:50;12.50;95.40
23560;DHT22;11958;50.836;4.438;2022-11-15T01:39:15;12.40;94.90
23560;DHT22;11958;50.836;4.438;2022-11-15T01:41:42;12.50;95.00
23560;DHT22;11958;50.836;4.438;2022-11-15T01:47:00;12.40;94.60
23560;DHT22;11958;50.836;4.438;2022-11-15T01:49:27;12.40;94.90
23560;DHT22;11958;50.836;4.438;2022-11-15T01:51:55;12.40;95.20
23560;DHT22;11958;50.836;4.438;2022-11-15T01:54:23;12.40;94.70
23560;DHT22;11958;50.836;4.438;2022-11-15T01:57:03;12.50;95.10
23560;DHT22;11958;50.836;4.438;2022-11-15T01:59:31;12.30;95.00
23560;DHT22;11958;50.836;4.438;2022-11-15T02:01:59;12.20;95.30
23560;DHT22;11958;50.836;4.438;2022-11-15T02:04:31;12.40;95.30
23560;DHT22;11958;50.836;4.438;2022-11-15T02:06:58;12.40;94.50
23560;DHT22;11958;50.836;4.438;2022-11-15T02:09:25;12.40;95.00
23560;DHT22;11958;50.836;4.438;2022-11-15T02:11:51;12.30;94.60
23560;DHT22;11958;50.836;4.438;2022-11-15T02:14:18;12.40;94.70
23560;DHT22;11958;50.836;4.438;2022-11-15T02:25:37;12.60;94.00
23560;DHT22;11958;50.836;4.438;2022-11-15T02:44:45;12.50;94.00
23560;DHT22;11958;50.836;4.438;2022-11-15T02:47:16;12.30;93.80
23560;DHT22;11958;50.836;4.438;2022-11-15T02:49:53;12.30;94.30
23560;DHT22;11958;50.836;4.438;2022-11-15T02:55:51;12.40;94.00
23560;DHT22;11958;50.836;4.438;2022-11-15T03:04:43;12.30;94.00
23560;DHT22;11958;50.836;4.438;2022-11-15T03:17:20;12.40;93.50
23560;DHT22;11958;50.836;4.438;2022-11-15T03:20:08;12.30;93.30
23560;DHT22;11958;50.836;4.438;2022-11-15T03:23:00;12.20;93.80
23560;DHT22;11958;50.836;4.438;2022-11-15T03:25:28;12.30;92.90
23560;DHT22;11958;50.836;4.438;2022-11-15T03:27:58;12.30;93.10
23560;DHT22;11958;50.836;4.438;2022-11-15T03:30:26;12.30;92.40
23560;DHT22;11958;50.836;4.438;2022-11-15T03:32:55;12.30;92.90
23560;DHT22;11958;50.836;4.438;2022-11-15T03:35:27;12.20;92.80
23560;DHT22;11958;50.836;4.438;2022-11-15T03:38:00;12.10;92.70
23560;DHT22;11958;50.836;4.438;2022-11-15T03:40:38;12.20;92.70
23560;DHT22;11958;50.836;4.438;2022-11-15T03:46:11;12.30;91.20
23560;DHT22;11958;50.836;4.438;2022-11-15T03:48:46;12.30;91.70
23560;DHT22;11958;50.836;4.438;2022-11-15T03:51:13;12.30;91.40
23560;DHT22;11958;50.836;4.438;2022-11-15T03:53:41;12.50;90.90
23560;DHT22;11958;50.836;4.438;2022-11-15T03:56:13;12.40;90.90
23560;DHT22;11958;50.836;4.438;2022-11-15T04:05:27;12.20;90.70
23560;DHT22;11958;50.836;4.438;2022-11-15T04:08:14;12.00;91.70
23560;DHT22;11958;50.836;4.438;2022-11-15T04:10:49;12.20;90.50
23560;DHT22;11958;50.836;4.438;2022-11-15T04:13:36;12.10;91.30
23560;DHT22;11958;50.836;4.438;2022-11-15T04:16:08;12.10;91.10
23560;DHT22;11958;50.836;4.438;2022-11-15T04:19:04;12.10;90.70
23560;DHT22;11958;50.836;4.438;2022-11-15T04:22:04;12.10;91.20
23560;DHT22;11958;50.836;4.438;2022-11-15T04:25:09;11.90;91.10
23560;DHT22;11958;50.836;4.438;2022-11-15T04:27:54;12.20;90.40
23560;DHT22;11958;50.836;4.438;2022-11-15T04:30:31;12.20;90.20
23560;DHT22;11958;50.836;4.438;2022-11-15T04:39:43;11.90;90.70
23560;DHT22;11958;50.836;4.438;2022-11-15T04:42:24;11.80;91.00
23560;DHT22;11958;50.836;4.438;2022-11-15T04:44:49;12.10;89.90
23560;DHT22;11958;50.836;4.438;2022-11-15T04:47:47;11.80;90.10
23560;DHT22;11958;50.836;4.438;2022-11-15T04:56:57;11.60;90.90
23560;DHT22;11958;50.836;4.438;2022-11-15T04:59:25;11.40;91.30
23560;DHT22;11958;50.836;4.438;2022-11-15T05:05:47;11.20;91.80
23560;DHT22;11958;50.836;4.438;2022-11-15T05:08:21;11.10;91.90
23560;DHT22;11958;50.836;4.438;2022-11-15T05:10:53;11.10;91.60
23560;DHT22;11958;50.836;4.438;2022-11-15T05:16:52;11.00;91.90
23560;DHT22;11958;50.836;4.438;2022-11-15T05:37:31;10.70;91.80
23560;DHT22;11958;50.836;4.438;2022-11-15T06:22:36;10.20;91.90
23560;DHT22;11958;50.836;4.438;2022-11-15T06:56:13;9.60;93.40
23560;DHT22;11958;50.836;4.438;2022-11-15T08:43:55;10.50;87.60
23560;DHT22;11958;50.836;4.438;2022-11-15T09:31:04;11.40;84.10
23560;DHT22;11958;50.836;4.438;2022-11-15T09:37:25;11.30;83.70
23560;DHT22;11958;50.836;4.438;2022-11-15T09:39:52;11.50;81.90
23560;DHT22;11958;50.836;4.438;2022-11-15T10:52:24;13.10;73.30
23560;DHT22;11958;50.836;4.438;2022-11-15T14:05:42;14.20;74.50
23560;DHT22;11958;50.836;4.438;2022-11-15T14:08:21;14.30;74.10
23560;DHT22;11958;50.836;4.438;2022-11-15T14:10:48;14.20;74.40
23560;DHT22;11958;50.836;4.438;2022-11-15T14:13:30;14.30;75.50
23560;DHT22;11958;50.836;4.438;2022-11-15T14:16:18;14.20;75.20
23560;DHT22;11958;50.836;4.438;2022-11-15T14:18:48;14.00;76.20
23560;DHT22;11958;50.836;4.438;2022-11-15T14:21:14;13.90;76.40
23560;DHT22;11958;50.836;4.438;2022-11-15T14:23:40;13.80;77.40
23560;DHT22;11958;50.836;4.438;2022-11-15T14:26:10;13.80;77.90
23560;DHT22;11958;50.836;4.438;2022-11-15T14:28:36;13.90;78.00
23560;DHT22;11958;50.836;4.438;2022-11-15T14:31:11;13.90;77.30
23560;DHT22;11958;50.836;4.438;2022-11-15T14:38:51;13.80;78.60
23560;DHT22;11958;50.836;4.438;2022-11-15T14:51:56;13.50;81.70
23560;DHT22;11958;50.836;4.438;2022-11-15T14:54:55;13.40;82.10
23560;DHT22;11958;50.836;4.438;2022-11-15T14:57:50;13.40;81.40
23560;DHT22;11958;50.836;4.438;2022-11-15T15:00:56;13.40;81.80
23560;DHT22;11958;50.836;4.438;2022-11-15T15:03:56;13.40;82.30
23560;DHT22;11958;50.836;4.438;2022-11-15T15:07:00;13.40;82.80
23560;DHT22;11958;50.836;4.438;2022-11-15T15:09:50;13.50;82.20
23560;DHT22;11958;50.836;4.438;2022-11-15T15:12:25;13.40;82.00
23560;DHT22;11958;50.836;4.438;2022-11-15T15:14:51;13.50;82.60
23560;DHT22;11958;50.836;4.438;2022-11-15T15:17:17;13.30;83.10
23560;DHT22;11958;50.836;4.438;2022-11-15T15:19:43;13.20;83.30
23560;DHT22;11958;50.836;4.438;2022-11-15T15:22:15;13.30;83.40
23560;DHT22;11958;50.836;4.438;2022-11-15T15:24:42;13.20;83.80
23560;DHT22;11958;50.836;4.438;2022-11-15T15:27:08;13.10;84.20
23560;DHT22;11958;50.836;4.438;2022-11-15T15:29:34;13.10;84.10
23560;DHT22;11958;50.836;4.438;2022-11-15T15:32:00;13.20;84.40
23560;DHT22;11958;50.836;4.438;2022-11-15T15:34:26;13.10;84.80
23560;DHT22;11958;50.836;4.438;2022-11-15T15:37:23;13.00;85.10
23560;DHT22;11958;50.836;4.438;2022-11-15T15:39:54;13.00;85.70
23560;DHT22;11958;50.836;4.438;2022-11-15T15:42:20;13.10;85.70
23560;DHT22;11958;50.836;4.438;2022-11-15T15:44:47;12.90;87.00
23560;DHT22;11958;50.836;4.438;2022-11-15T15:47:21;12.80;87.80
23560;DHT22;11958;50.836;4.438;2022-11-15T15:49:48;12.80;87.90
23560;DHT22;11958;50.836;4.438;2022-11-15T15:52:14;12.80;88.50
23560;DHT22;11958;50.836;4.438;2022-11-15T15:54:40;12.80;88.70
23560;DHT22;11958;50.836;4.438;2022-11-15T15:57:07;12.80;88.90
23560;DHT22;11958;50.836;4.438;2022-11-15T15:59:34;12.80;88.70
23560;DHT22;11958;50.836;4.438;2022-11-15T16:02:00;12.70;89.70
23560;DHT22;11958;50.836;4.438;2022-11-15T16:04:25;12.50;91.10
23560;DHT22;11958;50.836;4.438;2022-11-15T16:06:52;12.60;91.60
23560;DHT22;11958;50.836;4.438;2022-11-15T16:09:20;12.60;91.80
23560;DHT22;11958;50.836;4.438;2022-11-15T16:43:39;12.40;93.80
23560;DHT22;11958;50.836;4.438;2022-11-15T16:46:19;12.50;94.20
23560;DHT22;11958;50.836;4.438;2022-11-15T16:48:47;12.60;93.80
23560;DHT22;11958;50.836;4.438;2022-11-15T16:51:13;12.50;93.90
23560;DHT22;11958;50.836;4.438;2022-11-15T16:53:39;12.60;94.00
23560;DHT22;11958;50.836;4.438;2022-11-15T16:56:26;12.50;94.10
23560;DHT22;11958;50.836;4.438;2022-11-15T16:58:57;12.50;94.30
23560;DHT22;11958;50.836;4.438;2022-11-15T17:01:28;12.60;94.30
23560;DHT22;11958;50.836;4.438;2022-11-15T17:03:54;12.40;94.70
23560;DHT22;11958;50.836;4.438;2022-11-15T17:06:21;12.50;94.80
23560;DHT22;11958;50.836;4.438;2022-11-15T17:08:47;12.50;94.70
23560;DHT22;11958;50.836;4.438;2022-11-15T17:11:20;12.40;95.00
23560;DHT22;11958;50.836;4.438;2022-11-15T17:13:46;12.70;93.10
23560;DHT22;11958;50.836;4.438;2022-11-15T17:16:15;12.80;93.10
23560;DHT22;11958;50.836;4.438;2022-11-15T19:40:44;12.70;95.30
23560;DHT22;11958;50.836;4.438;2022-11-15T19:43:09;12.80;95.20
23560;DHT22;11958;50.836;4.438;2022-11-15T19:45:36;12.80;95.20
23560;DHT22;11958;50.836;4.438;2022-11-15T20:13:58;13.10;93.50
23560;DHT22;11958;50.836;4.438;2022-11-15T20:16:32;13.40;93.70
23560;DHT22;11958;50.836;4.438;2022-11-15T20:18:58;13.30;93.60
23560;DHT22;11958;50.836;4.438;2022-11-15T20:21:45;13.20;93.70
23560;DHT22;11958;50.836;4.438;2022-11-15T20:24:11;13.10;94.30
23560;DHT22;11958;50.836;4.438;2022-11-15T20:37:16;13.20;93.70
23560;DHT22;11958;50.836;4.438;2022-11-15T20:39:44;13.10;94.30
23560;DHT22;11958;50.836;4.438;2022-11-15T20:42:22;13.00;94.40
23560;DHT22;11958;50.836;4.438;2022-11-15T20:44:47;13.30;94.90
23560;DHT22;11958;50.836;4.438;2022-11-15T20:47:25;13.30;93.50
23560;DHT22;11958;50.836;4.438;2022-11-15T20:49:54;13.10;94.40
23560;DHT22;11958;50.836;4.438;2022-11-15T21:00:06;13.20;94.40
23560;DHT22;11958;50.836;4.438;2022-11-15T21:02:35;13.20;94.40
23560;DHT22;11958;50.836;4.438;2022-11-15T21:05:04;13.30;93.80
23560;DHT22;11958;50.836;4.438;2022-11-15T21:07:43;13.30;93.90
23560;DHT22;11958;50.836;4.438;2022-11-15T21:46:46;13.20;94.50
23560;DHT22;11958;50.836;4.438;2022-11-15T21:49:14;13.10;94.60
23560;DHT22;11958;50.836;4.438;2022-11-15T22:08:02;13.30;95.60
23560;DHT22;11958;50.836;4.438;2022-11-15T22:45:26;13.20;95.30
23560;DHT22;11958;50.836;4.438;2022-11-15T23:05:07;13.40;94.70
23560;DHT22;11958;50.836;4.438;2022-11-15T23:53:36;13.00;96.60
23560;DHT22;11958;50.836;4.438;2022-11-15T23:56:12;13.10;96.60
